createdAt,value
2022-08-08T00:00:51.959Z,16.5
2022-08-08T00:05:09.578Z,15.8
2022-08-08T00:10:57.635Z,15.6
2022-08-08T00:16:40.035Z,15.7
2022-08-08T00:22:10.722Z,15.7
2022-08-08T00:27:50.948Z,15.7
2022-08-08T00:33:18.897Z,15.7
2022-08-08T00:38:44.215Z,15.7
2022-08-08T00:44:07.757Z,15.7
2022-08-08T00:50:10.176Z,15.8
2022-08-08T00:55:53.595Z,15.6
2022-08-08T01:01:05.564Z,15.8
2022-08-08T01:06:35.527Z,16
2022-08-08T01:12:19.530Z,16
2022-08-08T01:18:00.526Z,16.2
2022-08-08T01:23:16.018Z,16.4
2022-08-08T01:28:51.279Z,16.7
2022-08-08T01:40:18.061Z,16.3
2022-08-08T01:57:07.135Z,15.8
2022-08-08T02:08:08.658Z,15.6
2022-08-08T02:13:53.421Z,15.4
2022-08-08T02:19:57.734Z,15.3
2022-08-08T02:25:07.315Z,15.6
2022-08-08T02:30:29.489Z,16
2022-08-08T02:36:03.633Z,15.6
2022-08-08T02:41:59.772Z,15.3
2022-08-08T02:47:01.033Z,15.4
2022-08-08T02:52:44.729Z,15.3
2022-08-08T02:58:27.630Z,15.1
2022-08-08T03:05:01.753Z,15
2022-08-08T03:20:33.911Z,15.2
2022-08-08T03:26:19.569Z,15.3
2022-08-08T03:32:05.681Z,14.9
2022-08-08T03:37:20.306Z,14.6
2022-08-08T03:42:50.916Z,14.2
2022-08-08T03:48:36.504Z,14.4
2022-08-08T03:54:41.032Z,14.6
2022-08-08T03:59:57.215Z,14.6
2022-08-08T04:05:27.386Z,14.5
2022-08-08T04:22:07.371Z,14.2
2022-08-08T04:28:03.816Z,14.2
2022-08-08T04:32:58.383Z,14.6
2022-08-08T04:38:42.216Z,14.9
2022-08-08T04:49:58.796Z,15.7
2022-08-08T04:55:25.796Z,15.7
2022-08-08T05:01:05.948Z,15.9
2022-08-08T05:12:30.061Z,16.5
2022-08-08T05:17:53.524Z,16.3
2022-08-08T05:29:05.017Z,16.2
2022-08-08T05:34:27.261Z,16.9
2022-08-08T05:39:57.626Z,17.8
2022-08-08T05:45:41.392Z,17.6
2022-08-08T05:51:47.948Z,17.7
2022-08-08T05:56:46.771Z,17.9
2022-08-08T06:02:29.865Z,18
2022-08-08T06:08:10.582Z,17.9
2022-08-08T06:13:42.520Z,18.2
2022-08-08T06:19:33.175Z,18.4
2022-08-08T06:24:56.734Z,18.6
2022-08-08T06:30:26.195Z,18.7
2022-08-08T06:36:10.081Z,18.8
2022-08-08T06:41:29.955Z,18.7
2022-08-08T06:47:22.100Z,19.1
2022-08-08T06:52:58.866Z,18.7
2022-08-08T06:58:33.161Z,18.7
2022-08-08T07:04:36.281Z,18.7
2022-08-08T07:09:41.432Z,18.9
2022-08-08T07:16:01.245Z,19.3
2022-08-08T07:20:50.685Z,19.4
2022-08-08T07:26:43.176Z,19.6
2022-08-08T07:32:15.596Z,19.8
2022-08-08T07:37:56.611Z,20.1
2022-08-08T07:43:35.421Z,20
2022-08-08T07:49:12.182Z,20.1
2022-08-08T07:54:50.607Z,20.4
2022-08-08T08:00:29.228Z,20.5
2022-08-08T08:05:50.694Z,21.4
2022-08-08T08:11:51.303Z,21.8
2022-08-08T08:17:05.141Z,21.6
2022-08-08T08:22:43.041Z,22.1
2022-08-08T08:28:24.331Z,21.7
2022-08-08T08:33:58.014Z,22.2
2022-08-08T08:40:00.683Z,22.9
2022-08-08T08:45:22.213Z,22.7
2022-08-08T08:50:53.618Z,22.9
2022-08-08T08:56:32.281Z,23
2022-08-08T09:02:14.754Z,23.3
2022-08-08T09:07:52.094Z,23.9
2022-08-08T09:13:30.807Z,23.6
2022-08-08T09:18:53.617Z,23.9
2022-08-08T09:24:47.701Z,24.4
2022-08-08T09:30:17.261Z,24.5
2022-08-08T09:35:56.975Z,24
2022-08-08T09:41:54.521Z,24.7
2022-08-08T09:47:25.304Z,24.3
2022-08-08T09:53:00.822Z,24.6
2022-08-08T09:58:25.706Z,24.7
2022-08-08T10:04:22.655Z,24.7
2022-08-08T10:09:58.985Z,24.9
2022-08-08T10:15:21.182Z,24.7
2022-08-08T10:21:03.617Z,24.5
2022-08-08T10:26:52.604Z,25
2022-08-08T10:32:16.180Z,25.4
2022-08-08T10:38:07.843Z,25.3
2022-08-08T10:49:06.401Z,25.5
2022-08-08T10:55:09.130Z,25.9
2022-08-08T11:00:35.635Z,25.8
2022-08-08T11:06:02.653Z,26.3
2022-08-08T11:12:06.654Z,26
2022-08-08T11:17:57.973Z,26.3
2022-08-08T11:23:05.445Z,26.3
2022-08-08T11:28:56.655Z,26.2
2022-08-08T11:34:31.800Z,26.4
2022-08-08T11:40:11.603Z,26
2022-08-08T11:46:00.084Z,25.7
2022-08-08T11:51:39.476Z,26.8
2022-08-08T11:56:56.288Z,26.6
2022-08-08T12:02:32.544Z,26.9
2022-08-08T12:08:16.441Z,26.5
2022-08-08T12:14:11.135Z,26.9
2022-08-08T12:19:51.474Z,27
2022-08-08T12:25:14.748Z,26.7
2022-08-08T12:30:57.252Z,26.7
2022-08-08T12:36:24.198Z,27.3
2022-08-08T12:42:06.819Z,26.8
2022-08-08T12:47:58.861Z,27.2
2022-08-08T12:53:39.562Z,27.3
2022-08-08T12:59:06.446Z,26.8
2022-08-08T13:05:00.030Z,27
2022-08-08T13:10:39.907Z,27.4
2022-08-08T13:16:25.403Z,27
2022-08-08T13:22:02.628Z,27.4
2022-08-08T13:27:35.744Z,27.5
2022-08-08T13:33:12.341Z,27.2
2022-08-08T13:39:03.733Z,27
2022-08-08T13:44:41.320Z,27.3
2022-08-08T13:50:34.374Z,27.4
2022-08-08T13:55:49.403Z,27.7
2022-08-08T14:01:53.231Z,28
2022-08-08T14:07:07.254Z,28
2022-08-08T14:12:58.330Z,27.8
2022-08-08T14:18:35.368Z,27.4
2022-08-08T14:24:05.062Z,28.1
2022-08-08T14:30:03.175Z,27.7
2022-08-08T14:35:35.279Z,27.5
2022-08-08T14:41:01.320Z,27.5
2022-08-08T14:46:46.198Z,28.1
2022-08-08T14:52:21.141Z,27.8
2022-08-08T14:58:00.751Z,28.1
2022-08-08T15:03:53.483Z,28
2022-08-08T15:09:22.901Z,28.3
2022-08-08T15:15:18.631Z,28
2022-08-08T15:20:56.391Z,27.9
2022-08-08T15:26:35.542Z,27.9
2022-08-08T15:32:04.142Z,28.2
2022-08-08T15:37:54.824Z,27.9
2022-08-08T15:48:47.259Z,28.1
2022-08-08T15:54:40.508Z,28.2
2022-08-08T16:05:53.577Z,27.7
2022-08-08T16:17:38.985Z,27.5
2022-08-08T16:23:07.706Z,27.6
2022-08-08T16:28:39.472Z,27.6
2022-08-08T16:34:25.400Z,27.6
2022-08-08T16:40:01.667Z,27.5
2022-08-08T16:46:35.528Z,27.3
2022-08-08T16:51:02.448Z,27.3
2022-08-08T17:02:40.970Z,27.2
2022-08-08T17:08:23.493Z,27.2
2022-08-08T17:14:01.322Z,27.1
2022-08-08T17:19:31.871Z,26.9
2022-08-08T17:30:58.786Z,26.8
2022-08-08T17:36:29.431Z,26.6
2022-08-08T17:42:14.125Z,26.5
2022-08-08T17:47:29.961Z,26.4
2022-08-08T17:53:11.511Z,26.2
2022-08-08T17:58:53.130Z,26.1
2022-08-08T18:04:52.383Z,25.8
2022-08-08T18:10:13.063Z,25.8
2022-08-08T18:15:59.813Z,25.5
2022-08-08T18:22:00.773Z,25.2
2022-08-08T18:44:02.707Z,23.9
2022-08-08T18:49:57.414Z,23.7
2022-08-08T19:02:13.912Z,23.5
2022-08-08T19:06:23.458Z,23.4
2022-08-08T19:12:18.548Z,23.4
2022-08-08T19:18:31.623Z,23.2
2022-08-08T19:23:37.877Z,22.9
2022-08-08T19:34:44.389Z,22.9
2022-08-08T19:40:22.101Z,22.8
2022-08-08T19:45:58.085Z,22.4
2022-08-08T19:51:25.015Z,22.2
2022-08-08T19:57:14.309Z,22.1
2022-08-08T20:02:50.548Z,21.7
2022-08-08T20:08:27.791Z,21.6
2022-08-08T20:14:13.542Z,21.5
2022-08-08T20:19:21.398Z,21.5
2022-08-08T20:24:54.436Z,21.4
2022-08-08T20:30:54.015Z,21.5
2022-08-08T20:36:22.150Z,21.4
2022-08-08T20:41:47.348Z,21.3
2022-08-08T20:47:36.341Z,21.3
